Terminal Aerodrome Forecast
Issued by NWS Sioux Falls, SD

Home | Current Version | Previous Version | Graphics & Text | Print | Product List | Glossary On
Versions: 1 2 3 4 5 6 7 8 9 10 11 12 13 14 15 16 17 18 19 20 21 22 23 24 25 26 27 28 29 30 31
000
FTUS43 KFSD 021150
TAFSUX
TAF
KSUX 021150Z 0212/0312 10005KT P6SM BKN100
      TEMPO 0215/0217 6SM -SHRA BKN025 BKN050
     FM021700 13008KT P6SM SCT035 BKN070
      TEMPO 0217/0219 5SM TSRA BKN025CB
     FM030000 15004KT P6SM BKN045
     FM030900 11004KT 4SM BR BKN015=

USA.gov is the U.S. government's official web portal to all federal, state and local government web resources and services.